sensor_id;sensor_type;location;lat;lon;timestamp;P1;durP1;ratioP1;P2;durP2;ratioP2
33714;SDS011;20043;50.998;4.754;2022-08-21T00:01:32;5.45;;;2.50;;
33714;SDS011;20043;50.998;4.754;2022-08-21T00:03:58;5.53;;;2.38;;
33714;SDS011;20043;50.998;4.754;2022-08-21T00:06:28;7.05;;;2.53;;
33714;SDS011;20043;50.998;4.754;2022-08-21T00:08:53;7.22;;;2.92;;
33714;SDS011;20043;50.998;4.754;2022-08-21T00:11:19;8.23;;;2.50;;
33714;SDS011;20043;50.998;4.754;2022-08-21T00:13:45;11.52;;;3.30;;
33714;SDS011;20043;50.998;4.754;2022-08-21T00:16:11;9.50;;;3.35;;
33714;SDS011;20043;50.998;4.754;2022-08-21T00:18:36;6.35;;;2.22;;
33714;SDS011;20043;50.998;4.754;2022-08-21T00:21:02;9.90;;;2.78;;
33714;SDS011;20043;50.998;4.754;2022-08-21T00:23:28;6.57;;;2.78;;
33714;SDS011;20043;50.998;4.754;2022-08-21T00:25:54;12.27;;;3.47;;
33714;SDS011;20043;50.998;4.754;2022-08-21T00:28:19;7.75;;;3.10;;
33714;SDS011;20043;50.998;4.754;2022-08-21T00:30:45;8.38;;;2.80;;
33714;SDS011;20043;50.998;4.754;2022-08-21T00:33:11;7.85;;;2.53;;
33714;SDS011;20043;50.998;4.754;2022-08-21T00:35:38;15.18;;;2.78;;
33714;SDS011;20043;50.998;4.754;2022-08-21T00:38:06;6.47;;;2.80;;
33714;SDS011;20043;50.998;4.754;2022-08-21T00:40:39;9.45;;;2.65;;
33714;SDS011;20043;50.998;4.754;2022-08-21T00:43:08;7.78;;;2.92;;
33714;SDS011;20043;50.998;4.754;2022-08-21T00:45:36;8.43;;;2.83;;
33714;SDS011;20043;50.998;4.754;2022-08-21T00:48:02;6.95;;;2.38;;
33714;SDS011;20043;50.998;4.754;2022-08-21T00:50:29;7.97;;;2.28;;
33714;SDS011;20043;50.998;4.754;2022-08-21T00:52:57;8.63;;;3.15;;
33714;SDS011;20043;50.998;4.754;2022-08-21T00:55:25;8.32;;;3.13;;
33714;SDS011;20043;50.998;4.754;2022-08-21T00:57:52;7.95;;;2.90;;
33714;SDS011;20043;50.998;4.754;2022-08-21T01:00:28;9.32;;;3.00;;
33714;SDS011;20043;50.998;4.754;2022-08-21T01:02:57;8.50;;;2.72;;
33714;SDS011;20043;50.998;4.754;2022-08-21T01:05:25;9.60;;;3.00;;
33714;SDS011;20043;50.998;4.754;2022-08-21T01:07:51;7.72;;;2.67;;
33714;SDS011;20043;50.998;4.754;2022-08-21T01:10:18;8.48;;;2.67;;
33714;SDS011;20043;50.998;4.754;2022-08-21T01:12:44;12.98;;;3.45;;
33714;SDS011;20043;50.998;4.754;2022-08-21T01:15:10;11.57;;;3.08;;
33714;SDS011;20043;50.998;4.754;2022-08-21T01:17:38;8.45;;;2.80;;
33714;SDS011;20043;50.998;4.754;2022-08-21T01:20:05;9.15;;;2.92;;
33714;SDS011;20043;50.998;4.754;2022-08-21T01:22:33;9.25;;;2.95;;
33714;SDS011;20043;50.998;4.754;2022-08-21T01:24:59;11.43;;;2.83;;
33714;SDS011;20043;50.998;4.754;2022-08-21T01:27:24;11.63;;;3.13;;
33714;SDS011;20043;50.998;4.754;2022-08-21T01:29:55;10.93;;;3.10;;
33714;SDS011;20043;50.998;4.754;2022-08-21T01:32:24;7.50;;;2.90;;
33714;SDS011;20043;50.998;4.754;2022-08-21T01:34:50;10.80;;;3.25;;
33714;SDS011;20043;50.998;4.754;2022-08-21T01:37:18;8.60;;;2.85;;
33714;SDS011;20043;50.998;4.754;2022-08-21T01:39:45;11.38;;;3.03;;
33714;SDS011;20043;50.998;4.754;2022-08-21T01:42:11;7.07;;;2.78;;
33714;SDS011;20043;50.998;4.754;2022-08-21T01:44:37;8.35;;;3.17;;
33714;SDS011;20043;50.998;4.754;2022-08-21T01:47:03;9.77;;;3.10;;
33714;SDS011;20043;50.998;4.754;2022-08-21T01:49:32;7.45;;;2.80;;
33714;SDS011;20043;50.998;4.754;2022-08-21T01:51:59;6.15;;;2.63;;
33714;SDS011;20043;50.998;4.754;2022-08-21T01:54:24;7.35;;;2.63;;
33714;SDS011;20043;50.998;4.754;2022-08-21T01:56:51;7.82;;;3.00;;
33714;SDS011;20043;50.998;4.754;2022-08-21T01:59:17;8.75;;;2.55;;
33714;SDS011;20043;50.998;4.754;2022-08-21T02:01:43;10.65;;;3.28;;
33714;SDS011;20043;50.998;4.754;2022-08-21T02:04:10;9.98;;;3.38;;
33714;SDS011;20043;50.998;4.754;2022-08-21T02:06:36;8.13;;;3.03;;
33714;SDS011;20043;50.998;4.754;2022-08-21T02:09:06;6.85;;;2.85;;
33714;SDS011;20043;50.998;4.754;2022-08-21T02:11:33;7.50;;;2.72;;
33714;SDS011;20043;50.998;4.754;2022-08-21T02:14:00;6.63;;;3.25;;
33714;SDS011;20043;50.998;4.754;2022-08-21T02:16:27;5.95;;;2.80;;
33714;SDS011;20043;50.998;4.754;2022-08-21T02:18:52;7.65;;;2.80;;
33714;SDS011;20043;50.998;4.754;2022-08-21T02:21:18;8.88;;;2.50;;
33714;SDS011;20043;50.998;4.754;2022-08-21T02:23:44;8.40;;;2.75;;
33714;SDS011;20043;50.998;4.754;2022-08-21T02:26:10;11.25;;;3.00;;
33714;SDS011;20043;50.998;4.754;2022-08-21T02:28:38;8.77;;;2.67;;
33714;SDS011;20043;50.998;4.754;2022-08-21T02:31:04;11.30;;;3.00;;
33714;SDS011;20043;50.998;4.754;2022-08-21T02:33:30;12.63;;;3.22;;
33714;SDS011;20043;50.998;4.754;2022-08-21T02:35:56;11.05;;;3.55;;
33714;SDS011;20043;50.998;4.754;2022-08-21T02:38:25;7.45;;;2.85;;
33714;SDS011;20043;50.998;4.754;2022-08-21T02:40:52;7.40;;;2.92;;
33714;SDS011;20043;50.998;4.754;2022-08-21T02:43:20;8.20;;;3.10;;
33714;SDS011;20043;50.998;4.754;2022-08-21T02:45:47;15.57;;;3.13;;
33714;SDS011;20043;50.998;4.754;2022-08-21T02:48:15;8.80;;;3.10;;
33714;SDS011;20043;50.998;4.754;2022-08-21T02:50:45;6.78;;;2.88;;
33714;SDS011;20043;50.998;4.754;2022-08-21T02:53:13;10.20;;;2.90;;
33714;SDS011;20043;50.998;4.754;2022-08-21T02:55:41;6.82;;;2.88;;
33714;SDS011;20043;50.998;4.754;2022-08-21T02:58:08;11.57;;;3.05;;
33714;SDS011;20043;50.998;4.754;2022-08-21T03:00:34;7.70;;;2.92;;
33714;SDS011;20043;50.998;4.754;2022-08-21T03:03:01;4.93;;;2.80;;
33714;SDS011;20043;50.998;4.754;2022-08-21T03:05:27;9.00;;;3.35;;
33714;SDS011;20043;50.998;4.754;2022-08-21T03:07:56;8.80;;;3.17;;
33714;SDS011;20043;50.998;4.754;2022-08-21T03:10:23;8.02;;;2.65;;
33714;SDS011;20043;50.998;4.754;2022-08-21T03:12:49;8.88;;;2.70;;
33714;SDS011;20043;50.998;4.754;2022-08-21T03:15:16;4.90;;;2.53;;
33714;SDS011;20043;50.998;4.754;2022-08-21T03:17:45;7.55;;;2.65;;
33714;SDS011;20043;50.998;4.754;2022-08-21T03:20:11;8.95;;;3.28;;
33714;SDS011;20043;50.998;4.754;2022-08-21T03:22:39;8.68;;;2.78;;
33714;SDS011;20043;50.998;4.754;2022-08-21T03:25:05;6.03;;;2.70;;
33714;SDS011;20043;50.998;4.754;2022-08-21T03:27:31;10.57;;;3.00;;
33714;SDS011;20043;50.998;4.754;2022-08-21T03:29:58;9.35;;;3.03;;
33714;SDS011;20043;50.998;4.754;2022-08-21T03:32:24;10.23;;;3.15;;
33714;SDS011;20043;50.998;4.754;2022-08-21T03:34:50;5.47;;;2.80;;
33714;SDS011;20043;50.998;4.754;2022-08-21T03:37:16;11.98;;;2.92;;
33714;SDS011;20043;50.998;4.754;2022-08-21T03:39:42;9.32;;;2.97;;
33714;SDS011;20043;50.998;4.754;2022-08-21T03:42:09;6.72;;;2.70;;
33714;SDS011;20043;50.998;4.754;2022-08-21T03:44:36;14.93;;;3.10;;
33714;SDS011;20043;50.998;4.754;2022-08-21T03:47:02;8.80;;;2.83;;
33714;SDS011;20043;50.998;4.754;2022-08-21T03:49:28;6.15;;;2.95;;
33714;SDS011;20043;50.998;4.754;2022-08-21T03:51:54;8.52;;;3.47;;
33714;SDS011;20043;50.998;4.754;2022-08-21T03:54:20;8.57;;;2.85;;
33714;SDS011;20043;50.998;4.754;2022-08-21T03:56:46;15.07;;;2.95;;
33714;SDS011;20043;50.998;4.754;2022-08-21T03:59:12;8.65;;;2.90;;
33714;SDS011;20043;50.998;4.754;2022-08-21T04:01:38;7.70;;;3.00;;
33714;SDS011;20043;50.998;4.754;2022-08-21T04:04:04;7.65;;;2.65;;
33714;SDS011;20043;50.998;4.754;2022-08-21T04:06:30;7.10;;;3.17;;
33714;SDS011;20043;50.998;4.754;2022-08-21T04:08:56;9.35;;;2.55;;
33714;SDS011;20043;50.998;4.754;2022-08-21T04:11:22;9.88;;;3.22;;
33714;SDS011;20043;50.998;4.754;2022-08-21T04:13:48;11.25;;;3.40;;
33714;SDS011;20043;50.998;4.754;2022-08-21T04:16:13;8.20;;;3.03;;
33714;SDS011;20043;50.998;4.754;2022-08-21T04:18:39;10.05;;;2.97;;
33714;SDS011;20043;50.998;4.754;2022-08-21T04:21:05;10.68;;;3.25;;
33714;SDS011;20043;50.998;4.754;2022-08-21T04:23:35;8.35;;;2.83;;
33714;SDS011;20043;50.998;4.754;2022-08-21T04:26:01;13.15;;;3.15;;
33714;SDS011;20043;50.998;4.754;2022-08-21T04:28:27;13.45;;;2.90;;
33714;SDS011;20043;50.998;4.754;2022-08-21T04:30:53;7.60;;;2.70;;
33714;SDS011;20043;50.998;4.754;2022-08-21T04:33:20;8.32;;;2.95;;
33714;SDS011;20043;50.998;4.754;2022-08-21T04:35:46;7.60;;;3.00;;
33714;SDS011;20043;50.998;4.754;2022-08-21T04:38:12;7.97;;;3.28;;
33714;SDS011;20043;50.998;4.754;2022-08-21T04:40:38;8.77;;;3.00;;
33714;SDS011;20043;50.998;4.754;2022-08-21T04:43:05;8.07;;;2.70;;
33714;SDS011;20043;50.998;4.754;2022-08-21T04:48:09;6.95;;;2.50;;
33714;SDS011;20043;50.998;4.754;2022-08-21T04:50:37;12.85;;;2.65;;
33714;SDS011;20043;50.998;4.754;2022-08-21T04:53:15;4.78;;;2.67;;
33714;SDS011;20043;50.998;4.754;2022-08-21T04:56:02;7.25;;;2.50;;
33714;SDS011;20043;50.998;4.754;2022-08-21T04:58:33;5.07;;;2.40;;
33714;SDS011;20043;50.998;4.754;2022-08-21T05:01:00;7.63;;;2.58;;
33714;SDS011;20043;50.998;4.754;2022-08-21T05:03:28;10.07;;;2.65;;
33714;SDS011;20043;50.998;4.754;2022-08-21T05:05:56;7.95;;;2.78;;
33714;SDS011;20043;50.998;4.754;2022-08-21T05:08:23;9.82;;;2.45;;
33714;SDS011;20043;50.998;4.754;2022-08-21T05:10:50;11.55;;;2.92;;
33714;SDS011;20043;50.998;4.754;2022-08-21T05:13:16;6.45;;;2.38;;
33714;SDS011;20043;50.998;4.754;2022-08-21T05:15:43;4.25;;;2.10;;
33714;SDS011;20043;50.998;4.754;2022-08-21T05:18:08;11.48;;;2.50;;
33714;SDS011;20043;50.998;4.754;2022-08-21T05:20:34;6.72;;;2.42;;
33714;SDS011;20043;50.998;4.754;2022-08-21T05:23:00;9.75;;;2.08;;
33714;SDS011;20043;50.998;4.754;2022-08-21T05:25:32;7.65;;;2.60;;
33714;SDS011;20043;50.998;4.754;2022-08-21T05:27:57;10.38;;;2.28;;
33714;SDS011;20043;50.998;4.754;2022-08-21T05:30:23;4.93;;;2.03;;
33714;SDS011;20043;50.998;4.754;2022-08-21T05:32:48;6.82;;;2.10;;
33714;SDS011;20043;50.998;4.754;2022-08-21T05:35:14;7.00;;;2.03;;
33714;SDS011;20043;50.998;4.754;2022-08-21T05:37:40;9.05;;;2.50;;
33714;SDS011;20043;50.998;4.754;2022-08-21T05:40:06;7.25;;;2.15;;
33714;SDS011;20043;50.998;4.754;2022-08-21T05:42:33;7.43;;;2.28;;
33714;SDS011;20043;50.998;4.754;2022-08-21T05:44:58;6.65;;;2.40;;
33714;SDS011;20043;50.998;4.754;2022-08-21T05:47:24;6.72;;;2.33;;
33714;SDS011;20043;50.998;4.754;2022-08-21T05:49:50;6.30;;;2.40;;
33714;SDS011;20043;50.998;4.754;2022-08-21T05:52:19;6.45;;;1.90;;
33714;SDS011;20043;50.998;4.754;2022-08-21T05:54:45;7.30;;;1.90;;
33714;SDS011;20043;50.998;4.754;2022-08-21T05:57:11;7.78;;;2.10;;
33714;SDS011;20043;50.998;4.754;2022-08-21T05:59:37;8.90;;;2.03;;
33714;SDS011;20043;50.998;4.754;2022-08-21T06:02:02;5.32;;;1.77;;
33714;SDS011;20043;50.998;4.754;2022-08-21T06:04:28;7.15;;;2.00;;
33714;SDS011;20043;50.998;4.754;2022-08-21T06:06:54;5.50;;;1.95;;
33714;SDS011;20043;50.998;4.754;2022-08-21T06:09:19;8.32;;;2.15;;
33714;SDS011;20043;50.998;4.754;2022-08-21T06:11:45;6.28;;;1.90;;
33714;SDS011;20043;50.998;4.754;2022-08-21T06:14:13;4.63;;;1.80;;
33714;SDS011;20043;50.998;4.754;2022-08-21T06:16:39;7.97;;;2.05;;
33714;SDS011;20043;50.998;4.754;2022-08-21T06:19:05;8.55;;;2.08;;
33714;SDS011;20043;50.998;4.754;2022-08-21T06:21:30;7.50;;;2.20;;
33714;SDS011;20043;50.998;4.754;2022-08-21T06:24:02;8.10;;;1.88;;
33714;SDS011;20043;50.998;4.754;2022-08-21T06:26:29;4.95;;;1.85;;
33714;SDS011;20043;50.998;4.754;2022-08-21T06:28:55;9.43;;;1.92;;
33714;SDS011;20043;50.998;4.754;2022-08-21T06:31:22;5.70;;;2.05;;
33714;SDS011;20043;50.998;4.754;2022-08-21T06:33:49;10.82;;;2.70;;
33714;SDS011;20043;50.998;4.754;2022-08-21T06:36:15;7.45;;;1.90;;
33714;SDS011;20043;50.998;4.754;2022-08-21T06:38:43;10.00;;;2.10;;
33714;SDS011;20043;50.998;4.754;2022-08-21T06:41:09;8.63;;;2.25;;
33714;SDS011;20043;50.998;4.754;2022-08-21T06:43:35;5.78;;;1.88;;
33714;SDS011;20043;50.998;4.754;2022-08-21T06:46:01;7.45;;;1.85;;
33714;SDS011;20043;50.998;4.754;2022-08-21T06:48:27;8.75;;;2.17;;
33714;SDS011;20043;50.998;4.754;2022-08-21T06:50:54;8.13;;;2.00;;
33714;SDS011;20043;50.998;4.754;2022-08-21T06:53:21;9.15;;;2.20;;
33714;SDS011;20043;50.998;4.754;2022-08-21T06:55:47;7.55;;;2.05;;
33714;SDS011;20043;50.998;4.754;2022-08-21T06:58:13;10.25;;;1.83;;
33714;SDS011;20043;50.998;4.754;2022-08-21T07:00:40;11.38;;;2.78;;
33714;SDS011;20043;50.998;4.754;2022-08-21T07:03:07;9.73;;;2.35;;
33714;SDS011;20043;50.998;4.754;2022-08-21T07:06:01;7.30;;;1.60;;
33714;SDS011;20043;50.998;4.754;2022-08-21T07:08:29;6.68;;;1.85;;
33714;SDS011;20043;50.998;4.754;2022-08-21T07:10:55;7.00;;;2.22;;
33714;SDS011;20043;50.998;4.754;2022-08-21T07:13:23;8.43;;;1.98;;
33714;SDS011;20043;50.998;4.754;2022-08-21T07:15:49;11.35;;;2.33;;
33714;SDS011;20043;50.998;4.754;2022-08-21T07:18:15;7.35;;;2.20;;
33714;SDS011;20043;50.998;4.754;2022-08-21T07:20:42;13.70;;;2.67;;
33714;SDS011;20043;50.998;4.754;2022-08-21T07:23:12;12.25;;;2.17;;
33714;SDS011;20043;50.998;4.754;2022-08-21T07:25:44;6.82;;;1.90;;
33714;SDS011;20043;50.998;4.754;2022-08-21T07:28:10;6.35;;;2.00;;
33714;SDS011;20043;50.998;4.754;2022-08-21T07:30:36;10.48;;;2.28;;
33714;SDS011;20043;50.998;4.754;2022-08-21T07:33:01;10.18;;;2.05;;
33714;SDS011;20043;50.998;4.754;2022-08-21T07:35:27;10.15;;;1.92;;
33714;SDS011;20043;50.998;4.754;2022-08-21T07:37:53;16.90;;;2.17;;
33714;SDS011;20043;50.998;4.754;2022-08-21T07:40:19;11.35;;;2.25;;
33714;SDS011;20043;50.998;4.754;2022-08-21T07:42:45;9.13;;;1.92;;
33714;SDS011;20043;50.998;4.754;2022-08-21T07:45:12;8.00;;;2.22;;
33714;SDS011;20043;50.998;4.754;2022-08-21T07:47:38;13.68;;;2.78;;
33714;SDS011;20043;50.998;4.754;2022-08-21T07:50:05;10.73;;;2.47;;
33714;SDS011;20043;50.998;4.754;2022-08-21T07:52:31;9.93;;;2.00;;
33714;SDS011;20043;50.998;4.754;2022-08-21T07:54:58;9.85;;;2.05;;
33714;SDS011;20043;50.998;4.754;2022-08-21T07:57:24;12.27;;;2.78;;
33714;SDS011;20043;50.998;4.754;2022-08-21T07:59:49;9.18;;;1.92;;
33714;SDS011;20043;50.998;4.754;2022-08-21T08:02:22;8.27;;;1.70;;
33714;SDS011;20043;50.998;4.754;2022-08-21T08:04:54;9.30;;;2.22;;
33714;SDS011;20043;50.998;4.754;2022-08-21T08:07:22;10.10;;;1.88;;
33714;SDS011;20043;50.998;4.754;2022-08-21T08:09:48;9.65;;;2.10;;
33714;SDS011;20043;50.998;4.754;2022-08-21T08:12:14;7.72;;;1.80;;
33714;SDS011;20043;50.998;4.754;2022-08-21T08:14:39;14.80;;;3.25;;
33714;SDS011;20043;50.998;4.754;2022-08-21T08:17:05;12.50;;;2.90;;
33714;SDS011;20043;50.998;4.754;2022-08-21T08:19:30;10.20;;;1.95;;
33714;SDS011;20043;50.998;4.754;2022-08-21T08:21:56;12.27;;;2.10;;
33714;SDS011;20043;50.998;4.754;2022-08-21T08:24:22;12.23;;;2.13;;
33714;SDS011;20043;50.998;4.754;2022-08-21T08:26:47;11.10;;;2.45;;
33714;SDS011;20043;50.998;4.754;2022-08-21T08:29:13;14.75;;;1.98;;
33714;SDS011;20043;50.998;4.754;2022-08-21T08:31:39;10.25;;;2.10;;
33714;SDS011;20043;50.998;4.754;2022-08-21T08:34:05;11.70;;;2.40;;
33714;SDS011;20043;50.998;4.754;2022-08-21T08:36:32;11.57;;;2.20;;
33714;SDS011;20043;50.998;4.754;2022-08-21T08:38:59;7.97;;;2.03;;
33714;SDS011;20043;50.998;4.754;2022-08-21T08:41:26;12.73;;;2.58;;
33714;SDS011;20043;50.998;4.754;2022-08-21T08:43:53;10.23;;;2.10;;
33714;SDS011;20043;50.998;4.754;2022-08-21T08:46:25;10.30;;;1.95;;
33714;SDS011;20043;50.998;4.754;2022-08-21T08:48:58;10.23;;;2.20;;
33714;SDS011;20043;50.998;4.754;2022-08-21T08:54:04;8.75;;;2.58;;
33714;SDS011;20043;50.998;4.754;2022-08-21T08:56:34;10.45;;;2.67;;
33714;SDS011;20043;50.998;4.754;2022-08-21T09:02:15;9.73;;;2.60;;
33714;SDS011;20043;50.998;4.754;2022-08-21T09:04:42;10.02;;;1.77;;
33714;SDS011;20043;50.998;4.754;2022-08-21T09:27:12;11.88;;;2.10;;
33714;SDS011;20043;50.998;4.754;2022-08-21T09:29:41;9.70;;;2.28;;
33714;SDS011;20043;50.998;4.754;2022-08-21T09:32:10;9.18;;;1.63;;
33714;SDS011;20043;50.998;4.754;2022-08-21T09:34:41;8.27;;;1.85;;
33714;SDS011;20043;50.998;4.754;2022-08-21T09:37:15;7.57;;;1.70;;
33714;SDS011;20043;50.998;4.754;2022-08-21T09:42:09;9.38;;;2.25;;
33714;SDS011;20043;50.998;4.754;2022-08-21T09:44:37;7.68;;;1.77;;
33714;SDS011;20043;50.998;4.754;2022-08-21T09:47:08;13.68;;;2.08;;
33714;SDS011;20043;50.998;4.754;2022-08-21T09:49:38;11.20;;;2.20;;
33714;SDS011;20043;50.998;4.754;2022-08-21T09:52:15;12.25;;;2.05;;
33714;SDS011;20043;50.998;4.754;2022-08-21T09:54:44;9.45;;;2.70;;
33714;SDS011;20043;50.998;4.754;2022-08-21T09:57:18;7.53;;;1.88;;
33714;SDS011;20043;50.998;4.754;2022-08-21T10:00:23;12.43;;;2.55;;
33714;SDS011;20043;50.998;4.754;2022-08-21T10:02:51;10.43;;;2.08;;
33714;SDS011;20043;50.998;4.754;2022-08-21T10:05:19;12.63;;;2.00;;
33714;SDS011;20043;50.998;4.754;2022-08-21T10:07:49;9.38;;;2.30;;
33714;SDS011;20043;50.998;4.754;2022-08-21T10:10:17;10.05;;;1.80;;
33714;SDS011;20043;50.998;4.754;2022-08-21T10:27:19;7.78;;;2.08;;
33714;SDS011;20043;50.998;4.754;2022-08-21T10:29:50;9.48;;;2.45;;
33714;SDS011;20043;50.998;4.754;2022-08-21T10:32:43;9.23;;;2.08;;
33714;SDS011;20043;50.998;4.754;2022-08-21T10:37:55;7.30;;;1.60;;
33714;SDS011;20043;50.998;4.754;2022-08-21T10:41:01;7.25;;;2.20;;
33714;SDS011;20043;50.998;4.754;2022-08-21T10:43:45;10.80;;;2.22;;
33714;SDS011;20043;50.998;4.754;2022-08-21T10:58:08;7.25;;;2.10;;
33714;SDS011;20043;50.998;4.754;2022-08-21T11:00:40;7.95;;;1.98;;
33714;SDS011;20043;50.998;4.754;2022-08-21T11:11:04;12.23;;;2.33;;
33714;SDS011;20043;50.998;4.754;2022-08-21T11:13:48;10.32;;;2.13;;
33714;SDS011;20043;50.998;4.754;2022-08-21T11:16:24;9.85;;;1.88;;
33714;SDS011;20043;50.998;4.754;2022-08-21T11:21:58;8.10;;;1.85;;
33714;SDS011;20043;50.998;4.754;2022-08-21T11:30:03;9.25;;;1.95;;
33714;SDS011;20043;50.998;4.754;2022-08-21T11:37:43;11.10;;;2.33;;
33714;SDS011;20043;50.998;4.754;2022-08-21T11:43:12;10.15;;;2.20;;
33714;SDS011;20043;50.998;4.754;2022-08-21T11:45:54;9.23;;;2.05;;
33714;SDS011;20043;50.998;4.754;2022-08-21T11:48:33;15.23;;;2.10;;
33714;SDS011;20043;50.998;4.754;2022-08-21T11:51:07;8.07;;;2.35;;
33714;SDS011;20043;50.998;4.754;2022-08-21T11:53:39;8.98;;;2.08;;
33714;SDS011;20043;50.998;4.754;2022-08-21T11:56:38;6.30;;;1.98;;
33714;SDS011;20043;50.998;4.754;2022-08-21T12:01:56;11.50;;;2.10;;
33714;SDS011;20043;50.998;4.754;2022-08-21T12:04:29;12.18;;;2.00;;
33714;SDS011;20043;50.998;4.754;2022-08-21T12:07:08;9.60;;;2.20;;
33714;SDS011;20043;50.998;4.754;2022-08-21T12:09:36;8.40;;;2.40;;
33714;SDS011;20043;50.998;4.754;2022-08-21T12:12:27;11.07;;;2.28;;
33714;SDS011;20043;50.998;4.754;2022-08-21T12:15:12;10.70;;;2.05;;
33714;SDS011;20043;50.998;4.754;2022-08-21T12:23:02;12.32;;;2.20;;
33714;SDS011;20043;50.998;4.754;2022-08-21T12:25:42;10.40;;;2.22;;
33714;SDS011;20043;50.998;4.754;2022-08-21T12:28:09;9.75;;;2.33;;
33714;SDS011;20043;50.998;4.754;2022-08-21T12:30:41;10.88;;;2.50;;
33714;SDS011;20043;50.998;4.754;2022-08-21T12:33:26;9.52;;;2.38;;
33714;SDS011;20043;50.998;4.754;2022-08-21T12:35:53;8.32;;;2.00;;
33714;SDS011;20043;50.998;4.754;2022-08-21T12:38:31;8.32;;;2.20;;
33714;SDS011;20043;50.998;4.754;2022-08-21T12:41:05;8.07;;;2.08;;
33714;SDS011;20043;50.998;4.754;2022-08-21T12:43:38;10.43;;;3.10;;
33714;SDS011;20043;50.998;4.754;2022-08-21T12:51:54;10.30;;;2.13;;
33714;SDS011;20043;50.998;4.754;2022-08-21T12:54:28;10.95;;;2.30;;
33714;SDS011;20043;50.998;4.754;2022-08-21T12:57:05;8.65;;;2.38;;
33714;SDS011;20043;50.998;4.754;2022-08-21T12:59:36;8.60;;;2.38;;
33714;SDS011;20043;50.998;4.754;2022-08-21T13:02:05;10.55;;;2.58;;
33714;SDS011;20043;50.998;4.754;2022-08-21T13:04:44;10.52;;;2.28;;
33714;SDS011;20043;50.998;4.754;2022-08-21T13:07:13;9.38;;;2.28;;
33714;SDS011;20043;50.998;4.754;2022-08-21T13:09:47;7.05;;;1.65;;
33714;SDS011;20043;50.998;4.754;2022-08-21T13:12:16;10.68;;;2.53;;
33714;SDS011;20043;50.998;4.754;2022-08-21T13:14:44;5.97;;;2.10;;
33714;SDS011;20043;50.998;4.754;2022-08-21T13:17:19;6.22;;;1.80;;
33714;SDS011;20043;50.998;4.754;2022-08-21T13:20:02;7.95;;;2.15;;
33714;SDS011;20043;50.998;4.754;2022-08-21T13:24:56;10.68;;;2.50;;
33714;SDS011;20043;50.998;4.754;2022-08-21T13:27:24;11.63;;;2.50;;
33714;SDS011;20043;50.998;4.754;2022-08-21T13:32:35;9.43;;;2.22;;
33714;SDS011;20043;50.998;4.754;2022-08-21T13:35:12;8.57;;;1.83;;
33714;SDS011;20043;50.998;4.754;2022-08-21T13:37:44;13.50;;;2.33;;
33714;SDS011;20043;50.998;4.754;2022-08-21T13:40:13;10.80;;;2.33;;
33714;SDS011;20043;50.998;4.754;2022-08-21T13:42:43;6.85;;;2.05;;
33714;SDS011;20043;50.998;4.754;2022-08-21T13:45:11;9.50;;;2.22;;
33714;SDS011;20043;50.998;4.754;2022-08-21T13:47:46;12.40;;;2.35;;
33714;SDS011;20043;50.998;4.754;2022-08-21T13:50:13;14.20;;;2.45;;
33714;SDS011;20043;50.998;4.754;2022-08-21T13:52:47;11.30;;;2.40;;
33714;SDS011;20043;50.998;4.754;2022-08-21T13:55:24;7.47;;;2.00;;
33714;SDS011;20043;50.998;4.754;2022-08-21T13:58:02;11.95;;;2.13;;
33714;SDS011;20043;50.998;4.754;2022-08-21T14:00:30;11.73;;;2.63;;
33714;SDS011;20043;50.998;4.754;2022-08-21T14:03:02;5.63;;;1.88;;
33714;SDS011;20043;50.998;4.754;2022-08-21T14:05:35;10.40;;;2.25;;
33714;SDS011;20043;50.998;4.754;2022-08-21T14:10:31;10.93;;;2.47;;
33714;SDS011;20043;50.998;4.754;2022-08-21T14:13:01;8.38;;;2.42;;
33714;SDS011;20043;50.998;4.754;2022-08-21T14:15:29;13.45;;;2.92;;
33714;SDS011;20043;50.998;4.754;2022-08-21T14:21:05;13.55;;;2.33;;
33714;SDS011;20043;50.998;4.754;2022-08-21T14:23:33;9.15;;;2.30;;
33714;SDS011;20043;50.998;4.754;2022-08-21T14:26:00;8.95;;;2.35;;
33714;SDS011;20043;50.998;4.754;2022-08-21T14:28:31;9.93;;;2.13;;
33714;SDS011;20043;50.998;4.754;2022-08-21T14:31:14;12.80;;;3.15;;
33714;SDS011;20043;50.998;4.754;2022-08-21T14:33:44;9.25;;;2.10;;
33714;SDS011;20043;50.998;4.754;2022-08-21T14:36:09;7.55;;;2.03;;
33714;SDS011;20043;50.998;4.754;2022-08-21T14:38:37;7.18;;;2.10;;
33714;SDS011;20043;50.998;4.754;2022-08-21T14:41:07;11.48;;;2.30;;
33714;SDS011;20043;50.998;4.754;2022-08-21T14:43:40;9.13;;;2.15;;
33714;SDS011;20043;50.998;4.754;2022-08-21T14:46:07;10.23;;;2.10;;
33714;SDS011;20043;50.998;4.754;2022-08-21T14:48:33;10.32;;;2.58;;
33714;SDS011;20043;50.998;4.754;2022-08-21T14:50:58;7.93;;;2.20;;
33714;SDS011;20043;50.998;4.754;2022-08-21T14:53:24;6.22;;;1.98;;
33714;SDS011;20043;50.998;4.754;2022-08-21T14:55:49;7.93;;;2.08;;
33714;SDS011;20043;50.998;4.754;2022-08-21T14:58:30;8.90;;;2.20;;
33714;SDS011;20043;50.998;4.754;2022-08-21T15:00:57;9.40;;;2.10;;
33714;SDS011;20043;50.998;4.754;2022-08-21T15:03:23;10.20;;;1.88;;
33714;SDS011;20043;50.998;4.754;2022-08-21T15:05:50;8.15;;;1.80;;
33714;SDS011;20043;50.998;4.754;2022-08-21T15:08:16;6.30;;;1.90;;
33714;SDS011;20043;50.998;4.754;2022-08-21T15:10:43;6.35;;;1.70;;
33714;SDS011;20043;50.998;4.754;2022-08-21T15:13:09;8.23;;;1.98;;
33714;SDS011;20043;50.998;4.754;2022-08-21T15:15:41;11.32;;;2.00;;
33714;SDS011;20043;50.998;4.754;2022-08-21T15:18:09;14.57;;;2.33;;
33714;SDS011;20043;50.998;4.754;2022-08-21T15:20:35;7.60;;;1.70;;
33714;SDS011;20043;50.998;4.754;2022-08-21T15:23:02;7.78;;;2.60;;
33714;SDS011;20043;50.998;4.754;2022-08-21T15:25:29;7.55;;;2.03;;
33714;SDS011;20043;50.998;4.754;2022-08-21T15:27:55;6.43;;;2.00;;
33714;SDS011;20043;50.998;4.754;2022-08-21T15:30:21;9.40;;;2.17;;
33714;SDS011;20043;50.998;4.754;2022-08-21T15:32:47;8.32;;;2.30;;
33714;SDS011;20043;50.998;4.754;2022-08-21T15:35:13;6.68;;;2.10;;
33714;SDS011;20043;50.998;4.754;2022-08-21T15:37:39;7.25;;;2.10;;
33714;SDS011;20043;50.998;4.754;2022-08-21T15:40:05;8.07;;;2.40;;
33714;SDS011;20043;50.998;4.754;2022-08-21T15:42:34;13.15;;;2.53;;
33714;SDS011;20043;50.998;4.754;2022-08-21T15:45:00;8.25;;;1.83;;
33714;SDS011;20043;50.998;4.754;2022-08-21T15:47:31;11.98;;;3.08;;
33714;SDS011;20043;50.998;4.754;2022-08-21T15:49:59;8.35;;;1.90;;
33714;SDS011;20043;50.998;4.754;2022-08-21T15:52:24;7.68;;;2.30;;
33714;SDS011;20043;50.998;4.754;2022-08-21T15:54:51;12.32;;;2.35;;
33714;SDS011;20043;50.998;4.754;2022-08-21T15:57:18;6.82;;;2.28;;
33714;SDS011;20043;50.998;4.754;2022-08-21T15:59:50;6.18;;;1.80;;
33714;SDS011;20043;50.998;4.754;2022-08-21T16:02:30;10.20;;;2.30;;
33714;SDS011;20043;50.998;4.754;2022-08-21T16:04:57;7.35;;;1.73;;
33714;SDS011;20043;50.998;4.754;2022-08-21T16:07:23;9.60;;;2.15;;
33714;SDS011;20043;50.998;4.754;2022-08-21T16:09:49;5.68;;;1.95;;
33714;SDS011;20043;50.998;4.754;2022-08-21T16:12:17;9.50;;;1.80;;
33714;SDS011;20043;50.998;4.754;2022-08-21T16:14:46;10.57;;;2.28;;
33714;SDS011;20043;50.998;4.754;2022-08-21T16:17:14;8.55;;;2.15;;
33714;SDS011;20043;50.998;4.754;2022-08-21T16:19:40;8.90;;;1.88;;
33714;SDS011;20043;50.998;4.754;2022-08-21T16:22:06;9.43;;;2.38;;
33714;SDS011;20043;50.998;4.754;2022-08-21T16:24:32;12.57;;;2.70;;
33714;SDS011;20043;50.998;4.754;2022-08-21T16:26:57;9.25;;;2.60;;
33714;SDS011;20043;50.998;4.754;2022-08-21T16:29:23;8.93;;;2.33;;
33714;SDS011;20043;50.998;4.754;2022-08-21T16:31:53;7.05;;;1.90;;
33714;SDS011;20043;50.998;4.754;2022-08-21T16:34:19;11.52;;;2.17;;
33714;SDS011;20043;50.998;4.754;2022-08-21T16:36:45;6.53;;;1.95;;
33714;SDS011;20043;50.998;4.754;2022-08-21T16:39:11;7.43;;;1.90;;
33714;SDS011;20043;50.998;4.754;2022-08-21T16:41:37;10.57;;;2.30;;